createdAt,value
2022-12-28T00:00:40.452Z,98020.22
2022-12-28T00:03:27.941Z,98013.31
2022-12-28T00:06:18.829Z,98010.78
2022-12-28T00:09:05.805Z,98004.69
2022-12-28T00:11:52.615Z,98003.03
2022-12-28T00:14:39.476Z,98011.03
2022-12-28T00:17:26.261Z,98011.25
2022-12-28T00:20:13.350Z,98015.66
2022-12-28T00:23:00.179Z,98021.84
2022-12-28T00:25:46.949Z,98014.22
2022-12-28T00:28:33.788Z,98002.84
2022-12-28T00:31:20.602Z,98005.63
2022-12-28T00:34:07.443Z,98005.00
2022-12-28T00:37:08.837Z,98006.66
2022-12-28T00:39:58.130Z,98004.38
2022-12-28T00:42:45.056Z,98011.44
2022-12-28T00:45:31.834Z,98014.06
2022-12-28T00:48:18.724Z,98005.56
2022-12-28T00:51:08.282Z,98003.91
2022-12-28T00:53:55.168Z,97993.50
2022-12-28T00:56:43.121Z,97997.09
2022-12-28T00:59:29.944Z,97995.50
2022-12-28T01:02:16.884Z,97997.44
2022-12-28T01:05:04.533Z,97998.25
2022-12-28T01:07:51.433Z,97991.44
2022-12-28T01:10:40.870Z,97982.00
2022-12-28T01:13:27.719Z,97982.13
2022-12-28T01:16:20.202Z,97982.22
2022-12-28T01:19:08.223Z,97978.75
2022-12-28T01:21:55.127Z,97989.25
2022-12-28T01:24:41.913Z,97984.13
2022-12-28T01:27:31.011Z,97974.47
2022-12-28T01:30:17.923Z,97969.34
2022-12-28T01:33:04.716Z,97968.50
2022-12-28T01:35:51.590Z,97970.41
2022-12-28T01:38:38.371Z,97965.16
2022-12-28T01:41:28.765Z,97959.06
2022-12-28T01:44:15.446Z,97964.41
2022-12-28T01:47:07.853Z,97952.38
2022-12-28T01:50:07.239Z,97956.88
2022-12-28T01:53:00.610Z,97953.31
2022-12-28T01:55:49.886Z,97956.66
2022-12-28T01:58:36.580Z,97947.22
2022-12-28T02:01:23.831Z,97943.88
2022-12-28T02:04:10.945Z,97944.72
2022-12-28T02:06:57.841Z,97928.38
2022-12-28T02:09:44.955Z,97925.63
2022-12-28T02:12:51.927Z,97913.47
2022-12-28T02:15:38.772Z,97917.03
2022-12-28T02:18:25.939Z,97912.00
2022-12-28T02:21:20.192Z,97890.06
2022-12-28T02:24:20.988Z,97884.72
2022-12-28T02:27:26.631Z,97876.13
2022-12-28T02:30:13.974Z,97871.94
2022-12-28T02:33:09.473Z,97870.16
2022-12-28T02:36:18.122Z,97878.13
2022-12-28T02:39:12.643Z,97893.75
2022-12-28T02:42:00.073Z,97876.34
2022-12-28T02:45:05.640Z,97870.28
2022-12-28T02:48:11.489Z,97873.84
2022-12-28T02:51:23.700Z,97867.78
2022-12-28T02:54:44.533Z,97856.41
2022-12-28T02:57:55.257Z,97859.16
2022-12-28T03:00:58.359Z,97853.19
2022-12-28T03:04:03.506Z,97841.03
2022-12-28T03:07:19.506Z,97840.31
2022-12-28T03:10:13.542Z,97855.94
2022-12-28T03:13:04.649Z,97835.09
2022-12-28T03:15:51.564Z,97842.94
2022-12-28T03:18:59.061Z,97836.97
2022-12-28T03:22:05.328Z,97832.56
2022-12-28T03:25:11.424Z,97829.94
2022-12-28T03:28:17.253Z,97818.97
2022-12-28T03:31:08.160Z,97819.56
2022-12-28T03:34:06.798Z,97812.75
2022-12-28T03:36:59.715Z,97800.59
2022-12-28T03:39:53.299Z,97798.81
2022-12-28T03:43:09.593Z,97794.41
2022-12-28T03:46:06.105Z,97791.06
2022-12-28T03:48:53.183Z,97785.09
2022-12-28T03:51:43.555Z,97778.19
2022-12-28T03:54:30.408Z,97776.50
2022-12-28T03:57:19.566Z,97771.25
2022-12-28T04:00:09.262Z,97773.03
2022-12-28T04:02:56.236Z,97779.13
2022-12-28T04:05:43.358Z,97779.00
2022-12-28T04:08:31.649Z,97770.31
2022-12-28T04:11:20.811Z,97754.81
2022-12-28T04:14:10.952Z,97748.59
2022-12-28T04:16:58.162Z,97751.34
2022-12-28T04:19:44.991Z,97751.34
2022-12-28T04:22:31.779Z,97761.84
2022-12-28T04:25:19.200Z,97755.63
2022-12-28T04:28:06.095Z,97767.09
2022-12-28T04:30:53.011Z,97758.41
2022-12-28T04:33:40.219Z,97757.66
2022-12-28T04:36:26.967Z,97764.56
2022-12-28T04:39:13.857Z,97758.72
2022-12-28T04:42:00.744Z,97763.84
2022-12-28T04:44:49.975Z,97759.66
2022-12-28T04:47:36.703Z,97764.91
2022-12-28T04:50:24.281Z,97778.84
2022-12-28T04:53:11.098Z,97771.81
2022-12-28T04:56:05.215Z,97768.59
2022-12-28T04:59:00.075Z,97766.81
2022-12-28T05:01:50.580Z,97750.47
2022-12-28T05:04:37.497Z,97758.94
2022-12-28T05:07:24.274Z,97748.56
2022-12-28T05:10:13.903Z,97736.66
2022-12-28T05:13:00.669Z,97749.53
2022-12-28T05:15:47.495Z,97735.59
2022-12-28T05:18:34.500Z,97723.41
2022-12-28T05:21:23.016Z,97727.00
2022-12-28T05:24:09.838Z,97736.53
2022-12-28T05:26:56.597Z,97733.91
2022-12-28T05:29:43.403Z,97739.28
2022-12-28T05:32:30.186Z,97742.72
2022-12-28T05:35:19.440Z,97740.09
2022-12-28T05:38:06.107Z,97742.72
2022-12-28T05:40:52.885Z,97736.75
2022-12-28T05:43:39.772Z,97725.66
2022-12-28T05:46:31.783Z,97715.16
2022-12-28T05:49:21.372Z,97718.66
2022-12-28T05:52:08.146Z,97704.69
2022-12-28T05:54:58.013Z,97708.16
2022-12-28T05:57:44.794Z,97706.38
2022-12-28T06:00:31.871Z,97710.66
2022-12-28T06:03:18.710Z,97702.81
2022-12-28T06:06:24.897Z,97693.28
2022-12-28T06:09:11.967Z,97693.28
2022-12-28T06:11:58.766Z,97696.00
2022-12-28T06:14:45.520Z,97709.94
2022-12-28T06:17:32.315Z,97706.47
2022-12-28T06:20:19.072Z,97698.63
2022-12-28T06:23:05.864Z,97714.47
2022-12-28T06:25:58.369Z,97716.13
2022-12-28T06:28:45.407Z,97715.16
2022-12-28T06:31:34.137Z,97709.94
2022-12-28T06:34:21.050Z,97715.31
2022-12-28T06:37:07.814Z,97709.22
2022-12-28T06:39:54.609Z,97705.66
2022-12-28T06:42:41.388Z,97713.50
2022-12-28T06:45:30.381Z,97717.09
2022-12-28T06:48:17.179Z,97706.47
2022-12-28T06:51:08.046Z,97702.94
2022-12-28T06:53:55.533Z,97702.94
2022-12-28T06:56:45.169Z,97695.16
2022-12-28T06:59:31.995Z,97691.59
2022-12-28T07:02:19.745Z,97687.19
2022-12-28T07:05:06.882Z,97700.19
2022-12-28T07:07:56.384Z,97708.16
2022-12-28T07:10:56.741Z,97709.09
2022-12-28T07:13:51.308Z,97697.78
2022-12-28T07:19:23.826Z,97705.56
2022-12-28T07:22:10.590Z,97702.81
2022-12-28T07:24:57.348Z,97702.56
2022-12-28T07:27:44.121Z,97690.31
2022-12-28T07:30:31.051Z,97689.34
2022-12-28T07:33:17.850Z,97684.94
2022-12-28T07:36:06.624Z,97685.88
2022-12-28T07:38:55.577Z,97683.25
2022-12-28T07:41:42.402Z,97680.66
2022-12-28T07:44:30.260Z,97677.94
2022-12-28T07:47:18.213Z,97678.75
2022-12-28T07:50:08.155Z,97671.72
2022-12-28T07:52:58.975Z,97676.13
2022-12-28T07:55:55.277Z,97666.72
2022-12-28T08:01:31.719Z,97668.13
2022-12-28T08:04:20.184Z,97656.09
2022-12-28T08:07:06.943Z,97669.56
2022-12-28T08:09:56.730Z,97655.88
2022-12-28T08:12:46.393Z,97655.03
2022-12-28T08:15:36.229Z,97648.00
2022-12-28T08:18:23.112Z,97654.94
2022-12-28T08:21:22.827Z,97650.53
2022-12-28T08:25:18.151Z,97641.09
2022-12-28T08:28:07.574Z,97633.47
2022-12-28T08:31:00.665Z,97636.59
2022-12-28T08:33:48.227Z,97639.81
2022-12-28T08:36:37.585Z,97639.91
2022-12-28T08:39:24.268Z,97645.06
2022-12-28T08:42:11.135Z,97655.53
2022-12-28T08:44:57.939Z,97659.00
2022-12-28T08:47:44.951Z,97654.56
2022-12-28T08:50:36.926Z,97656.25
2022-12-28T08:53:24.399Z,97650.75
2022-12-28T08:56:13.833Z,97652.44
2022-12-28T08:59:01.186Z,97644.56
2022-12-28T09:01:53.003Z,97637.53
2022-12-28T09:04:40.913Z,97638.84
2022-12-28T09:07:27.775Z,97633.47
2022-12-28T09:10:14.678Z,97641.25
2022-12-28T09:13:01.562Z,97642.91
2022-12-28T09:15:56.560Z,97628.84
2022-12-28T09:18:44.936Z,97634.91
2022-12-28T09:21:34.617Z,97627.91
2022-12-28T09:24:22.333Z,97625.16
2022-12-28T09:27:09.135Z,97624.19
2022-12-28T09:29:55.950Z,97629.19
2022-12-28T09:32:45.497Z,97622.28
2022-12-28T09:35:32.355Z,97623.25
2022-12-28T09:38:19.144Z,97630.25
2022-12-28T09:41:22.235Z,97624.31
2022-12-28T09:44:17.735Z,97633.16
2022-12-28T09:47:24.401Z,97633.38
2022-12-28T09:50:28.426Z,97630.53
2022-12-28T09:53:30.545Z,97626.09
2022-12-28T09:56:24.770Z,97622.53
2022-12-28T09:59:17.417Z,97618.84
2022-12-28T10:02:18.197Z,97605.59
2022-12-28T10:05:05.494Z,97604.53
2022-12-28T10:07:52.536Z,97615.47
2022-12-28T10:10:48.662Z,97604.88
2022-12-28T10:13:54.639Z,97604.75
2022-12-28T10:16:48.363Z,97594.03
2022-12-28T10:19:35.578Z,97591.16
2022-12-28T10:22:22.646Z,97584.00
2022-12-28T10:25:21.260Z,97576.72
2022-12-28T10:28:10.112Z,97569.81
2022-12-28T10:31:14.404Z,97577.19
2022-12-28T10:34:01.705Z,97569.09
2022-12-28T10:36:49.527Z,97572.28
2022-12-28T10:39:36.979Z,97563.56
2022-12-28T10:42:34.687Z,97566.78
2022-12-28T10:45:33.195Z,97568.34
2022-12-28T10:48:22.972Z,97562.97
2022-12-28T10:51:12.593Z,97560.06
2022-12-28T10:54:00.190Z,97546.72
2022-12-28T10:56:49.923Z,97546.47
2022-12-28T10:59:36.727Z,97540.84
2022-12-28T11:02:28.363Z,97533.81
2022-12-28T11:05:24.307Z,97537.97
2022-12-28T11:08:14.336Z,97535.94
2022-12-28T11:11:01.165Z,97534.13
2022-12-28T11:13:52.604Z,97520.19
2022-12-28T11:16:40.638Z,97531.00
2022-12-28T11:19:27.564Z,97525.75
2022-12-28T11:22:19.298Z,97520.38
2022-12-28T11:25:06.621Z,97511.56
2022-12-28T11:27:55.535Z,97513.06
2022-12-28T11:30:43.418Z,97506.06
2022-12-28T11:33:44.747Z,97509.28
2022-12-28T11:36:33.747Z,97496.97
2022-12-28T11:39:31.248Z,97491.56
2022-12-28T11:42:39.520Z,97478.34
2022-12-28T11:45:52.708Z,97467.69
2022-12-28T11:48:42.445Z,97472.13
2022-12-28T11:51:30.169Z,97471.88
2022-12-28T11:54:37.071Z,97458.72
2022-12-28T11:57:41.905Z,97461.34
2022-12-28T12:00:50.547Z,97458.47
2022-12-28T12:04:01.596Z,97452.13
2022-12-28T12:06:48.741Z,97445.06
2022-12-28T12:09:38.453Z,97446.75
2022-12-28T12:12:28.331Z,97437.91
2022-12-28T12:15:19.156Z,97429.06
2022-12-28T12:18:08.594Z,97429.75
2022-12-28T12:21:15.032Z,97418.16
2022-12-28T12:24:10.486Z,97420.50
2022-12-28T12:27:13.739Z,97414.19
2022-12-28T12:30:02.996Z,97415.72
2022-12-28T12:32:53.946Z,97412.84
2022-12-28T12:35:56.584Z,97398.72
2022-12-28T12:39:03.225Z,97402.75
2022-12-28T12:42:09.070Z,97399.88
2022-12-28T12:45:04.405Z,97399.72
2022-12-28T12:48:16.863Z,97388.28
2022-12-28T12:51:21.197Z,97398.50
2022-12-28T12:54:35.617Z,97392.16
2022-12-28T12:57:33.337Z,97391.31
2022-12-28T13:00:22.013Z,97393.53
2022-12-28T13:03:38.699Z,97391.75
2022-12-28T13:06:28.300Z,97385.66
2022-12-28T13:09:17.140Z,97379.44
2022-12-28T13:12:08.504Z,97374.16
2022-12-28T13:14:58.730Z,97374.16
2022-12-28T13:18:44.602Z,97364.38
2022-12-28T13:21:39.012Z,97358.13
2022-12-28T13:24:31.071Z,97358.84
2022-12-28T13:27:20.450Z,97352.50
2022-12-28T13:30:07.308Z,97352.66
2022-12-28T13:33:03.508Z,97345.88
2022-12-28T13:35:50.355Z,97349.06
2022-12-28T13:38:37.196Z,97351.72
2022-12-28T13:41:26.117Z,97347.47
2022-12-28T13:44:22.788Z,97343.00
2022-12-28T13:47:37.126Z,97342.47
2022-12-28T13:50:32.676Z,97325.03
2022-12-28T13:53:27.362Z,97324.16
2022-12-28T13:56:16.388Z,97336.63
2022-12-28T13:59:06.967Z,97326.66
2022-12-28T14:05:47.472Z,97323.47
2022-12-28T14:08:37.205Z,97314.31
2022-12-28T14:11:26.997Z,97320.94
2022-12-28T14:14:14.149Z,97331.19
2022-12-28T14:17:02.275Z,97321.50
2022-12-28T14:19:49.225Z,97318.59
2022-12-28T14:22:38.540Z,97317.47
2022-12-28T14:25:25.213Z,97325.22
2022-12-28T14:28:34.090Z,97327.75
2022-12-28T14:31:24.780Z,97325.09
2022-12-28T14:34:22.439Z,97321.34
2022-12-28T14:37:46.586Z,97321.34
2022-12-28T14:40:34.451Z,97316.78
2022-12-28T14:43:32.628Z,97312.34
2022-12-28T14:46:37.788Z,97318.31
2022-12-28T14:49:30.763Z,97313.03
2022-12-28T14:52:17.633Z,97317.31
2022-12-28T14:55:19.908Z,97309.41
2022-12-28T14:58:14.899Z,97317.16
2022-12-28T15:01:07.133Z,97317.16
2022-12-28T15:04:03.156Z,97333.66
2022-12-28T15:06:57.723Z,97318.97
2022-12-28T15:09:45.804Z,97318.84
2022-12-28T15:12:33.439Z,97308.31
2022-12-28T15:18:27.114Z,97311.50
2022-12-28T15:21:35.323Z,97309.69
2022-12-28T15:24:33.340Z,97303.16
2022-12-28T15:27:20.780Z,97312.97
2022-12-28T15:30:10.783Z,97305.09
2022-12-28T15:33:08.148Z,97305.53
2022-12-28T15:39:03.214Z,97311.06
2022-12-28T15:41:51.572Z,97304.13
2022-12-28T15:44:38.819Z,97299.53
2022-12-28T15:47:36.442Z,97303.16
2022-12-28T15:50:28.921Z,97286.94
2022-12-28T15:53:18.257Z,97306.44
2022-12-28T15:56:07.485Z,97303.69
2022-12-28T15:59:00.078Z,97295.91
2022-12-28T16:01:54.762Z,97281.66
2022-12-28T16:04:42.364Z,97286.53
2022-12-28T16:07:38.331Z,97271.28
2022-12-28T16:10:27.385Z,97282.38
2022-12-28T16:13:17.287Z,97281.38
2022-12-28T16:16:25.356Z,97287.88
2022-12-28T16:19:19.988Z,97283.59
2022-12-28T16:22:06.948Z,97287.72
2022-12-28T16:24:53.688Z,97291.19
2022-12-28T16:27:40.446Z,97280.53
2022-12-28T16:30:27.375Z,97271.09
2022-12-28T16:33:14.150Z,97269.16
2022-12-28T16:36:01.065Z,97261.25
2022-12-28T16:38:47.919Z,97276.09
2022-12-28T16:41:37.743Z,97266.38
2022-12-28T16:44:26.799Z,97259.31
2022-12-28T16:47:14.101Z,97253.22
2022-12-28T16:50:00.930Z,97243.50
2022-12-28T16:52:47.743Z,97247.66
2022-12-28T16:55:42.114Z,97237.41
2022-12-28T16:58:32.360Z,97237.13
2022-12-28T17:01:19.213Z,97232.81
2022-12-28T17:04:09.193Z,97234.31
2022-12-28T17:06:56.114Z,97231.03
2022-12-28T17:09:50.007Z,97237.13
2022-12-28T17:12:37.147Z,97234.31
2022-12-28T17:15:24.114Z,97229.91
2022-12-28T17:18:11.315Z,97230.56
2022-12-28T17:21:01.863Z,97226.13
2022-12-28T17:23:51.739Z,97220.03
2022-12-28T17:26:38.536Z,97220.88
2022-12-28T17:29:25.320Z,97225.19
2022-12-28T17:32:13.697Z,97227.81
2022-12-28T17:35:00.552Z,97220.56
2022-12-28T17:37:47.697Z,97226.66
2022-12-28T17:40:34.515Z,97224.84
2022-12-28T17:43:21.425Z,97229.00
2022-12-28T17:46:08.289Z,97229.00
2022-12-28T17:48:56.347Z,97231.50
2022-12-28T17:51:44.319Z,97228.72
2022-12-28T17:54:32.650Z,97228.84
2022-12-28T17:57:19.721Z,97224.72
2022-12-28T18:00:09.265Z,97224.03
2022-12-28T18:02:56.234Z,97229.84
2022-12-28T18:05:48.049Z,97223.75
2022-12-28T18:08:36.946Z,97216.81
2022-12-28T18:11:27.458Z,97216.81
2022-12-28T18:14:14.205Z,97213.38
2022-12-28T18:17:01.134Z,97223.06
2022-12-28T18:19:48.031Z,97211.69
2022-12-28T18:22:36.881Z,97200.47
2022-12-28T18:25:23.870Z,97200.47
2022-12-28T18:28:12.881Z,97201.47
2022-12-28T18:31:02.944Z,97193.69
2022-12-28T18:33:52.256Z,97192.03
2022-12-28T18:36:38.947Z,97194.69
2022-12-28T18:39:27.697Z,97184.59
2022-12-28T18:42:15.147Z,97192.50
2022-12-28T18:45:01.919Z,97188.34
2022-12-28T18:47:50.645Z,97183.06
2022-12-28T18:50:39.512Z,97173.66
2022-12-28T18:53:29.497Z,97170.19
2022-12-28T18:56:21.422Z,97172.81
2022-12-28T18:59:08.196Z,97168.84
2022-12-28T19:02:06.278Z,97165.38
2022-12-28T19:04:54.826Z,97170.66
2022-12-28T19:07:47.255Z,97185.63
2022-12-28T19:10:36.045Z,97177.19
2022-12-28T19:13:22.947Z,97173.69
2022-12-28T19:16:18.124Z,97169.41
2022-12-28T19:19:04.948Z,97170.22
2022-12-28T19:21:58.602Z,97164.31
2022-12-28T19:24:45.902Z,97159.44
2022-12-28T19:27:32.920Z,97157.69
2022-12-28T19:30:19.712Z,97148.09
2022-12-28T19:33:08.705Z,97146.59
2022-12-28T19:35:55.461Z,97141.63
2022-12-28T19:38:45.252Z,97146.91
2022-12-28T19:41:32.052Z,97141.91
2022-12-28T19:44:27.071Z,97133.03
2022-12-28T19:47:13.922Z,97132.13
2022-12-28T19:50:00.815Z,97143.72
2022-12-28T19:52:47.599Z,97136.13
2022-12-28T19:55:34.725Z,97131.97
2022-12-28T19:58:21.770Z,97132.94
2022-12-28T20:01:17.824Z,97121.72
2022-12-28T20:04:12.389Z,97108.88
2022-12-28T20:07:00.097Z,97109.16
2022-12-28T20:09:50.827Z,97110.81
2022-12-28T20:12:37.660Z,97110.81
2022-12-28T20:15:24.486Z,97105.00
2022-12-28T20:18:11.408Z,97093.13
2022-12-28T20:21:20.537Z,97102.38
2022-12-28T20:24:09.856Z,97106.81
2022-12-28T20:27:01.706Z,97099.22
2022-12-28T20:29:48.790Z,97103.50
2022-12-28T20:32:39.663Z,97101.03
2022-12-28T20:35:29.990Z,97099.50
2022-12-28T20:38:21.963Z,97098.84
2022-12-28T20:41:38.364Z,97091.06
2022-12-28T20:44:31.295Z,97093.84
2022-12-28T20:47:20.495Z,97086.09
2022-12-28T20:50:13.882Z,97070.09
2022-12-28T20:53:00.828Z,97071.44
2022-12-28T20:55:49.273Z,97071.44
2022-12-28T20:58:42.333Z,97086.41
2022-12-28T21:01:29.697Z,97056.06
2022-12-28T21:04:18.888Z,97063.13
2022-12-28T21:07:05.883Z,97057.88
2022-12-28T21:09:54.711Z,97045.00
2022-12-28T21:12:42.754Z,97040.59
2022-12-28T21:15:29.686Z,97043.25
2022-12-28T21:18:20.006Z,97058.03
2022-12-28T21:21:13.876Z,97052.78
2022-12-28T21:24:02.785Z,97040.72
2022-12-28T21:26:52.740Z,97038.09
2022-12-28T21:29:39.591Z,97033.81
2022-12-28T21:32:26.398Z,97030.50
2022-12-28T21:35:13.263Z,97026.22
2022-12-28T21:38:00.055Z,97029.97
2022-12-28T21:40:59.893Z,97026.50
2022-12-28T21:43:46.783Z,97020.72
2022-12-28T21:46:33.835Z,97021.97
2022-12-28T21:49:21.078Z,97028.75
2022-12-28T21:52:07.990Z,97019.78
2022-12-28T21:54:54.770Z,97030.69
2022-12-28T21:57:41.631Z,97042.84
2022-12-28T22:00:47.262Z,97033.19
2022-12-28T22:03:52.598Z,97019.50
2022-12-28T22:06:39.443Z,97023.25
2022-12-28T22:09:47.621Z,97013.25
2022-12-28T22:12:34.683Z,97010.63
2022-12-28T22:15:42.151Z,97001.38
2022-12-28T22:18:53.130Z,97008.81
2022-12-28T22:21:36.282Z,97007.03
2022-12-28T22:24:23.215Z,97008.81
2022-12-28T22:27:12.587Z,97001.09
2022-12-28T22:29:59.292Z,96995.84
2022-12-28T22:32:57.406Z,96989.22
2022-12-28T22:35:44.292Z,96986.72
2022-12-28T22:38:31.250Z,96977.84
2022-12-28T22:41:19.513Z,96979.94
2022-12-28T22:44:09.983Z,96981.63
2022-12-28T22:46:57.102Z,96984.53
2022-12-28T22:49:43.979Z,96984.25
2022-12-28T22:52:30.868Z,96978.28
2022-12-28T22:55:19.887Z,96972.91
2022-12-28T22:58:09.042Z,96974.69
2022-12-28T23:01:16.168Z,96977.47
2022-12-28T23:04:03.122Z,96975.66
2022-12-28T23:06:50.916Z,96975.13
2022-12-28T23:09:46.812Z,96974.00
2022-12-28T23:12:33.748Z,96962.97
2022-12-28T23:15:21.628Z,96961.31
2022-12-28T23:18:36.177Z,96965.59
2022-12-28T23:21:42.342Z,96960.31
2022-12-28T23:24:47.755Z,96957.53
2022-12-28T23:27:39.343Z,96955.19
2022-12-28T23:30:27.779Z,96953.56
2022-12-28T23:33:15.805Z,96949.41
2022-12-28T23:36:04.322Z,96943.84
2022-12-28T23:38:51.222Z,96950.09
2022-12-28T23:41:50.339Z,96939.75
2022-12-28T23:44:37.223Z,96934.31
2022-12-28T23:47:24.115Z,96937.25
2022-12-28T23:50:14.313Z,96938.06
2022-12-28T23:53:01.172Z,96940.69
2022-12-28T23:55:47.933Z,96938.22
2022-12-28T23:58:34.707Z,96935.88
